sensor_id;sensor_type;location;lat;lon;timestamp;pressure;altitude;pressure_sealevel;temperature;humidity
67545;BME280;54380;47.770;11.150;2022-12-07T00:00:46;94735.25;;;3.42;68.01
67545;BME280;54380;47.770;11.150;2022-12-07T00:03:13;94735.84;;;3.44;67.51
67545;BME280;54380;47.770;11.150;2022-12-07T00:05:39;94733.03;;;3.45;67.91
67545;BME280;54380;47.770;11.150;2022-12-07T00:08:06;94724.19;;;3.46;67.87
67545;BME280;54380;47.770;11.150;2022-12-07T00:10:33;94727.41;;;3.48;67.53
67545;BME280;54380;47.770;11.150;2022-12-07T00:12:59;94724.19;;;3.46;67.50
67545;BME280;54380;47.770;11.150;2022-12-07T00:15:26;94722.38;;;3.47;68.03
67545;BME280;54380;47.770;11.150;2022-12-07T00:17:54;94720.97;;;3.44;67.56
67545;BME280;54380;47.770;11.150;2022-12-07T00:20:20;94726.44;;;3.43;67.69
67545;BME280;54380;47.770;11.150;2022-12-07T00:22:47;94713.38;;;3.43;67.90
67545;BME280;54380;47.770;11.150;2022-12-07T00:25:13;94712.38;;;3.44;68.32
67545;BME280;54380;47.770;11.150;2022-12-07T00:27:40;94710.13;;;3.47;67.61
67545;BME280;54380;47.770;11.150;2022-12-07T00:30:07;94712.53;;;3.49;67.57
67545;BME280;54380;47.770;11.150;2022-12-07T00:32:33;94704.50;;;3.50;67.66
67545;BME280;54380;47.770;11.150;2022-12-07T00:35:01;94703.50;;;3.51;68.00
67545;BME280;54380;47.770;11.150;2022-12-07T00:37:28;94698.47;;;3.50;67.47
67545;BME280;54380;47.770;11.150;2022-12-07T00:39:55;94705.72;;;3.48;67.80
67545;BME280;54380;47.770;11.150;2022-12-07T00:42:21;94703.91;;;3.48;68.10
67545;BME280;54380;47.770;11.150;2022-12-07T00:44:48;94706.53;;;3.48;67.81
67545;BME280;54380;47.770;11.150;2022-12-07T00:47:14;94700.28;;;3.49;67.57
67545;BME280;54380;47.770;11.150;2022-12-07T00:49:41;94709.50;;;3.52;68.03
67545;BME280;54380;47.770;11.150;2022-12-07T00:52:08;94710.53;;;3.51;67.94
67545;BME280;54380;47.770;11.150;2022-12-07T00:54:35;94708.91;;;3.50;68.10
67545;BME280;54380;47.770;11.150;2022-12-07T00:57:02;94707.50;;;3.47;68.36
67545;BME280;54380;47.770;11.150;2022-12-07T00:59:28;94709.31;;;3.47;67.65
67545;BME280;54380;47.770;11.150;2022-12-07T01:01:55;94705.13;;;3.46;68.22
67545;BME280;54380;47.770;11.150;2022-12-07T01:04:21;94699.31;;;3.44;68.12
67545;BME280;54380;47.770;11.150;2022-12-07T01:06:48;94703.50;;;3.45;67.75
67545;BME280;54380;47.770;11.150;2022-12-07T01:09:16;94699.13;;;3.45;68.22
67545;BME280;54380;47.770;11.150;2022-12-07T01:11:42;94704.09;;;3.47;67.67
67545;BME280;54380;47.770;11.150;2022-12-07T01:14:09;94701.50;;;3.47;67.83
67545;BME280;54380;47.770;11.150;2022-12-07T01:16:35;94707.31;;;3.49;67.62
67545;BME280;54380;47.770;11.150;2022-12-07T01:19:02;94706.09;;;3.51;67.93
67545;BME280;54380;47.770;11.150;2022-12-07T01:21:31;94702.28;;;3.54;67.94
67545;BME280;54380;47.770;11.150;2022-12-07T01:24:02;94709.06;;;3.55;67.80
67545;BME280;54380;47.770;11.150;2022-12-07T01:26:30;94713.50;;;3.55;67.83
67545;BME280;54380;47.770;11.150;2022-12-07T01:28:57;94711.13;;;3.53;68.16
67545;BME280;54380;47.770;11.150;2022-12-07T01:31:25;94713.72;;;3.53;67.74
67545;BME280;54380;47.770;11.150;2022-12-07T01:33:53;94715.31;;;3.54;67.71
67545;BME280;54380;47.770;11.150;2022-12-07T01:36:20;94719.50;;;3.55;68.17
67545;BME280;54380;47.770;11.150;2022-12-07T01:38:47;94717.72;;;3.56;67.97
67545;BME280;54380;47.770;11.150;2022-12-07T01:41:15;94715.91;;;3.56;67.61
67545;BME280;54380;47.770;11.150;2022-12-07T01:46:24;94722.94;;;3.56;67.30
67545;BME280;54380;47.770;11.150;2022-12-07T01:48:51;94718.72;;;3.55;68.06
67545;BME280;54380;47.770;11.150;2022-12-07T01:51:17;94720.91;;;3.58;68.06
67545;BME280;54380;47.770;11.150;2022-12-07T01:53:44;94720.72;;;3.59;67.93
67545;BME280;54380;47.770;11.150;2022-12-07T01:56:14;94710.06;;;3.61;67.13
67545;BME280;54380;47.770;11.150;2022-12-07T01:58:42;94704.63;;;3.62;67.74
67545;BME280;54380;47.770;11.150;2022-12-07T02:01:08;94712.69;;;3.61;67.64
67545;BME280;54380;47.770;11.150;2022-12-07T02:03:37;94706.88;;;3.59;67.69
67545;BME280;54380;47.770;11.150;2022-12-07T02:06:05;94705.47;;;3.56;67.82
67545;BME280;54380;47.770;11.150;2022-12-07T02:08:33;94707.06;;;3.57;67.21
67545;BME280;54380;47.770;11.150;2022-12-07T02:10:59;94703.47;;;3.58;67.58
67545;BME280;54380;47.770;11.150;2022-12-07T02:13:27;94706.63;;;3.60;67.67
67545;BME280;54380;47.770;11.150;2022-12-07T02:15:59;94700.03;;;3.58;67.38
67545;BME280;54380;47.770;11.150;2022-12-07T02:18:34;94696.84;;;3.56;67.94
67545;BME280;54380;47.770;11.150;2022-12-07T02:21:07;94699.66;;;3.54;67.40
67545;BME280;54380;47.770;11.150;2022-12-07T02:23:38;94692.84;;;3.53;67.43
67545;BME280;54380;47.770;11.150;2022-12-07T02:29:05;94689.84;;;3.49;68.12
67545;BME280;54380;47.770;11.150;2022-12-07T02:31:36;94690.06;;;3.48;67.77
67545;BME280;54380;47.770;11.150;2022-12-07T02:34:04;94687.47;;;3.48;68.13
67545;BME280;54380;47.770;11.150;2022-12-07T02:36:34;94684.03;;;3.47;68.14
67545;BME280;54380;47.770;11.150;2022-12-07T02:39:06;94690.06;;;3.48;68.15
67545;BME280;54380;47.770;11.150;2022-12-07T02:41:36;94689.09;;;3.42;67.79
67545;BME280;54380;47.770;11.150;2022-12-07T02:44:06;94689.50;;;3.39;68.13
67545;BME280;54380;47.770;11.150;2022-12-07T02:46:35;94689.50;;;3.39;68.41
67545;BME280;54380;47.770;11.150;2022-12-07T02:49:03;94689.09;;;3.42;68.03
67545;BME280;54380;47.770;11.150;2022-12-07T02:51:31;94676.63;;;3.44;68.14
67545;BME280;54380;47.770;11.150;2022-12-07T02:53:57;94686.63;;;3.47;67.79
67545;BME280;54380;47.770;11.150;2022-12-07T02:56:25;94680.44;;;3.48;67.58
67545;BME280;54380;47.770;11.150;2022-12-07T02:58:54;94683.63;;;3.50;68.12
67545;BME280;54380;47.770;11.150;2022-12-07T03:01:32;94684.19;;;3.52;68.08
67545;BME280;54380;47.770;11.150;2022-12-07T03:04:02;94683.22;;;3.54;67.47
67545;BME280;54380;47.770;11.150;2022-12-07T03:06:32;94682.41;;;3.53;67.88
67545;BME280;54380;47.770;11.150;2022-12-07T03:09:03;94683.41;;;3.52;67.87
67545;BME280;54380;47.770;11.150;2022-12-07T03:11:32;94678.97;;;3.52;67.38
67545;BME280;54380;47.770;11.150;2022-12-07T03:14:07;94678.00;;;3.54;67.98
67545;BME280;54380;47.770;11.150;2022-12-07T03:16:39;94676.16;;;3.54;68.01
67545;BME280;54380;47.770;11.150;2022-12-07T03:19:09;94670.16;;;3.54;67.49
67545;BME280;54380;47.770;11.150;2022-12-07T03:21:38;94676.97;;;3.55;67.57
67545;BME280;54380;47.770;11.150;2022-12-07T03:24:06;94677.56;;;3.57;67.85
67545;BME280;54380;47.770;11.150;2022-12-07T03:26:35;94677.56;;;3.57;68.08
67545;BME280;54380;47.770;11.150;2022-12-07T03:29:05;94675.97;;;3.56;67.50
67545;BME280;54380;47.770;11.150;2022-12-07T03:31:34;94672.34;;;3.57;67.93
67545;BME280;54380;47.770;11.150;2022-12-07T03:34:05;94680.16;;;3.57;67.16
67545;BME280;54380;47.770;11.150;2022-12-07T03:36:35;94673.13;;;3.57;67.71
67545;BME280;54380;47.770;11.150;2022-12-07T03:39:03;94673.13;;;3.57;67.56
67545;BME280;54380;47.770;11.150;2022-12-07T03:41:33;94669.53;;;3.58;67.44
67545;BME280;54380;47.770;11.150;2022-12-07T03:44:08;94670.53;;;3.57;67.84
67545;BME280;54380;47.770;11.150;2022-12-07T03:46:37;94665.31;;;3.57;67.72
67545;BME280;54380;47.770;11.150;2022-12-07T03:49:10;94668.72;;;3.58;67.70
67545;BME280;54380;47.770;11.150;2022-12-07T03:51:41;94666.09;;;3.58;67.65
67545;BME280;54380;47.770;11.150;2022-12-07T03:54:13;94673.72;;;3.59;67.76
67545;BME280;54380;47.770;11.150;2022-12-07T03:56:40;94676.94;;;3.61;67.67
67545;BME280;54380;47.770;11.150;2022-12-07T03:59:08;94674.31;;;3.61;67.66
67545;BME280;54380;47.770;11.150;2022-12-07T04:01:35;94670.09;;;3.60;67.63
67545;BME280;54380;47.770;11.150;2022-12-07T04:04:02;94673.72;;;3.59;67.27
67545;BME280;54380;47.770;11.150;2022-12-07T04:06:30;94669.72;;;3.57;67.82
67545;BME280;54380;47.770;11.150;2022-12-07T04:08:57;94672.97;;;3.52;67.21
67545;BME280;54380;47.770;11.150;2022-12-07T04:11:24;94677.41;;;3.51;67.92
67545;BME280;54380;47.770;11.150;2022-12-07T04:13:50;94672.97;;;3.52;67.80
67545;BME280;54380;47.770;11.150;2022-12-07T04:16:35;94676.97;;;3.55;67.65
67545;BME280;54380;47.770;11.150;2022-12-07T04:19:09;94672.53;;;3.55;67.40
67545;BME280;54380;47.770;11.150;2022-12-07T04:21:37;94667.31;;;3.55;67.52
67545;BME280;54380;47.770;11.150;2022-12-07T04:24:04;94675.75;;;3.57;67.63
67545;BME280;54380;47.770;11.150;2022-12-07T04:26:30;94667.13;;;3.57;67.94
67545;BME280;54380;47.770;11.150;2022-12-07T04:28:57;94674.16;;;3.56;67.30
67545;BME280;54380;47.770;11.150;2022-12-07T04:31:30;94676.78;;;3.56;67.50
67545;BME280;54380;47.770;11.150;2022-12-07T04:33:56;94678.34;;;3.57;67.38
67545;BME280;54380;47.770;11.150;2022-12-07T04:36:23;94673.38;;;3.56;67.93
67545;BME280;54380;47.770;11.150;2022-12-07T04:38:52;94674.16;;;3.56;67.80
67545;BME280;54380;47.770;11.150;2022-12-07T04:41:19;94679.56;;;3.55;67.61
67545;BME280;54380;47.770;11.150;2022-12-07T04:43:45;94677.19;;;3.53;67.89
67545;BME280;54380;47.770;11.150;2022-12-07T04:46:12;94674.34;;;3.55;67.82
67545;BME280;54380;47.770;11.150;2022-12-07T04:48:39;94674.16;;;3.56;67.31
67545;BME280;54380;47.770;11.150;2022-12-07T04:51:05;94675.16;;;3.55;67.90
67545;BME280;54380;47.770;11.150;2022-12-07T04:53:32;94672.53;;;3.55;67.38
67545;BME280;54380;47.770;11.150;2022-12-07T04:56:00;94675.97;;;3.56;67.58
67545;BME280;54380;47.770;11.150;2022-12-07T04:58:27;94671.53;;;3.56;67.65
67545;BME280;54380;47.770;11.150;2022-12-07T05:00:54;94671.31;;;3.58;68.02
67545;BME280;54380;47.770;11.150;2022-12-07T05:03:21;94680.38;;;3.55;67.98
67545;BME280;54380;47.770;11.150;2022-12-07T05:05:47;94671.97;;;3.53;67.97
67545;BME280;54380;47.770;11.150;2022-12-07T05:08:14;94677.41;;;3.51;68.18
67545;BME280;54380;47.770;11.150;2022-12-07T05:10:40;94676.00;;;3.49;67.85
67545;BME280;54380;47.770;11.150;2022-12-07T05:13:08;94666.00;;;3.46;67.95
67545;BME280;54380;47.770;11.150;2022-12-07T05:15:35;94670.84;;;3.42;68.25
67545;BME280;54380;47.770;11.150;2022-12-07T05:18:01;94670.03;;;3.42;68.48
67545;BME280;54380;47.770;11.150;2022-12-07T05:20:29;94670.25;;;3.40;68.17
67545;BME280;54380;47.770;11.150;2022-12-07T05:22:56;94673.06;;;3.39;68.35
67545;BME280;54380;47.770;11.150;2022-12-07T05:25:24;94671.03;;;3.41;68.20
67545;BME280;54380;47.770;11.150;2022-12-07T05:27:51;94676.84;;;3.43;68.06
67545;BME280;54380;47.770;11.150;2022-12-07T05:30:19;94675.63;;;3.45;68.10
67545;BME280;54380;47.770;11.150;2022-12-07T05:32:46;94671.22;;;3.46;67.86
67545;BME280;54380;47.770;11.150;2022-12-07T05:35:12;94674.63;;;3.46;68.40
67545;BME280;54380;47.770;11.150;2022-12-07T05:37:39;94678.00;;;3.47;68.32
67545;BME280;54380;47.770;11.150;2022-12-07T05:40:05;94682.44;;;3.46;67.94
67545;BME280;54380;47.770;11.150;2022-12-07T05:42:32;94680.63;;;3.47;68.00
67545;BME280;54380;47.770;11.150;2022-12-07T05:44:58;94679.63;;;3.48;67.98
67545;BME280;54380;47.770;11.150;2022-12-07T05:47:26;94682.00;;;3.49;67.96
67545;BME280;54380;47.770;11.150;2022-12-07T05:49:53;94682.81;;;3.50;68.29
67545;BME280;54380;47.770;11.150;2022-12-07T05:52:19;94684.19;;;3.52;67.92
67545;BME280;54380;47.770;11.150;2022-12-07T05:54:46;94682.41;;;3.53;68.22
67545;BME280;54380;47.770;11.150;2022-12-07T05:57:12;94684.00;;;3.54;67.97
67545;BME280;54380;47.770;11.150;2022-12-07T05:59:39;94690.25;;;3.53;67.73
67545;BME280;54380;47.770;11.150;2022-12-07T06:02:06;94690.44;;;3.51;67.51
67545;BME280;54380;47.770;11.150;2022-12-07T06:04:36;94685.66;;;3.48;67.81
67545;BME280;54380;47.770;11.150;2022-12-07T06:07:03;94695.69;;;3.45;67.38
67545;BME280;54380;47.770;11.150;2022-12-07T06:09:30;94695.13;;;3.43;67.85
67545;BME280;54380;47.770;11.150;2022-12-07T06:11:57;94697.94;;;3.41;68.00
67545;BME280;54380;47.770;11.150;2022-12-07T06:14:42;94692.34;;;3.38;67.55
67545;BME280;54380;47.770;11.150;2022-12-07T06:17:09;94703.19;;;3.35;67.75
67545;BME280;54380;47.770;11.150;2022-12-07T06:19:37;94699.19;;;3.32;67.72
67545;BME280;54380;47.770;11.150;2022-12-07T06:22:04;94699.19;;;3.32;68.12
67545;BME280;54380;47.770;11.150;2022-12-07T06:24:31;94704.63;;;3.30;68.32
67545;BME280;54380;47.770;11.150;2022-12-07T06:26:58;94709.03;;;3.30;68.04
67545;BME280;54380;47.770;11.150;2022-12-07T06:29:24;94713.22;;;3.31;68.37
67545;BME280;54380;47.770;11.150;2022-12-07T06:31:51;94714.03;;;3.32;67.80
67545;BME280;54380;47.770;11.150;2022-12-07T06:34:19;94713.47;;;3.29;68.27
67545;BME280;54380;47.770;11.150;2022-12-07T06:36:47;94711.84;;;3.28;68.36
67545;BME280;54380;47.770;11.150;2022-12-07T06:39:18;94717.28;;;3.27;68.46
67545;BME280;54380;47.770;11.150;2022-12-07T06:41:44;94720.47;;;3.29;68.58
67545;BME280;54380;47.770;11.150;2022-12-07T06:44:11;94720.84;;;3.33;67.89
67545;BME280;54380;47.770;11.150;2022-12-07T06:46:37;94719.03;;;3.33;68.01
67545;BME280;54380;47.770;11.150;2022-12-07T06:49:04;94726.69;;;3.35;68.40
67545;BME280;54380;47.770;11.150;2022-12-07T06:51:31;94727.47;;;3.35;67.98
67545;BME280;54380;47.770;11.150;2022-12-07T06:53:59;94723.66;;;3.38;68.43
67545;BME280;54380;47.770;11.150;2022-12-07T06:56:26;94728.63;;;3.39;68.38
67545;BME280;54380;47.770;11.150;2022-12-07T06:58:53;94735.66;;;3.39;68.01
67545;BME280;54380;47.770;11.150;2022-12-07T07:01:19;94739.31;;;3.38;68.40
67545;BME280;54380;47.770;11.150;2022-12-07T07:03:46;94734.69;;;3.40;68.16
67545;BME280;54380;47.770;11.150;2022-12-07T07:06:13;94732.25;;;3.38;67.77
67545;BME280;54380;47.770;11.150;2022-12-07T07:08:39;94734.09;;;3.38;68.09
67545;BME280;54380;47.770;11.150;2022-12-07T07:11:08;94740.88;;;3.39;68.20
67545;BME280;54380;47.770;11.150;2022-12-07T07:13:34;94744.88;;;3.41;68.29
67545;BME280;54380;47.770;11.150;2022-12-07T07:16:01;94742.09;;;3.43;68.21
67545;BME280;54380;47.770;11.150;2022-12-07T07:18:28;94742.09;;;3.43;68.51
67545;BME280;54380;47.770;11.150;2022-12-07T07:20:55;94744.47;;;3.44;68.29
67545;BME280;54380;47.770;11.150;2022-12-07T07:23:21;94739.06;;;3.46;68.30
67545;BME280;54380;47.770;11.150;2022-12-07T07:25:48;94734.44;;;3.48;67.82
67545;BME280;54380;47.770;11.150;2022-12-07T07:28:16;94736.03;;;3.49;68.41
67545;BME280;54380;47.770;11.150;2022-12-07T07:30:43;94742.25;;;3.48;68.40
67545;BME280;54380;47.770;11.150;2022-12-07T07:33:10;94743.25;;;3.47;67.79
67545;BME280;54380;47.770;11.150;2022-12-07T07:35:41;94749.50;;;3.46;68.04
67545;BME280;54380;47.770;11.150;2022-12-07T07:38:07;94747.69;;;3.46;68.33
67545;BME280;54380;47.770;11.150;2022-12-07T07:40:34;94757.91;;;3.48;67.77
67545;BME280;54380;47.770;11.150;2022-12-07T07:43:01;94754.47;;;3.47;68.17
67545;BME280;54380;47.770;11.150;2022-12-07T07:45:29;94753.69;;;3.47;67.99
67545;BME280;54380;47.770;11.150;2022-12-07T07:47:56;94756.09;;;3.48;67.69
67545;BME280;54380;47.770;11.150;2022-12-07T07:50:22;94755.69;;;3.51;68.43
67545;BME280;54380;47.770;11.150;2022-12-07T07:52:49;94751.84;;;3.54;67.86
67545;BME280;54380;47.770;11.150;2022-12-07T07:55:16;94751.84;;;3.54;68.14
67545;BME280;54380;47.770;11.150;2022-12-07T07:57:42;94752.88;;;3.53;67.56
67545;BME280;54380;47.770;11.150;2022-12-07T08:00:15;94747.84;;;3.51;67.68
67545;BME280;54380;47.770;11.150;2022-12-07T08:02:44;94753.28;;;3.50;68.12
67545;BME280;54380;47.770;11.150;2022-12-07T08:05:11;94762.31;;;3.47;67.76
67545;BME280;54380;47.770;11.150;2022-12-07T08:07:38;94758.72;;;3.48;67.69
67545;BME280;54380;47.770;11.150;2022-12-07T08:10:05;94768.13;;;3.49;68.16
67545;BME280;54380;47.770;11.150;2022-12-07T08:12:35;94767.13;;;3.50;68.16
67545;BME280;54380;47.770;11.150;2022-12-07T08:15:01;94769.53;;;3.52;67.81
67545;BME280;54380;47.770;11.150;2022-12-07T08:17:28;94765.91;;;3.53;68.17
67545;BME280;54380;47.770;11.150;2022-12-07T08:19:56;94766.50;;;3.55;68.02
67545;BME280;54380;47.770;11.150;2022-12-07T08:22:23;94773.31;;;3.56;67.70
67545;BME280;54380;47.770;11.150;2022-12-07T08:24:49;94770.72;;;3.56;67.68
67545;BME280;54380;47.770;11.150;2022-12-07T08:27:16;94772.31;;;3.57;67.59
67545;BME280;54380;47.770;11.150;2022-12-07T08:29:42;94775.94;;;3.56;67.54
67545;BME280;54380;47.770;11.150;2022-12-07T08:32:09;94776.94;;;3.55;68.39
67545;BME280;54380;47.770;11.150;2022-12-07T08:34:35;94771.16;;;3.53;67.58
67545;BME280;54380;47.770;11.150;2022-12-07T08:37:04;94779.38;;;3.50;68.04
67545;BME280;54380;47.770;11.150;2022-12-07T08:39:31;94771.94;;;3.47;67.94
67545;BME280;54380;47.770;11.150;2022-12-07T08:41:58;94762.97;;;3.43;68.00
67545;BME280;54380;47.770;11.150;2022-12-07T08:44:25;94770.59;;;3.38;68.71
67545;BME280;54380;47.770;11.150;2022-12-07T08:46:52;94785.06;;;3.34;68.42
67545;BME280;54380;47.770;11.150;2022-12-07T08:49:21;94779.25;;;3.32;69.04
67545;BME280;54380;47.770;11.150;2022-12-07T08:51:49;94767.41;;;3.29;68.93
67545;BME280;54380;47.770;11.150;2022-12-07T08:54:17;94777.06;;;3.28;68.67
67545;BME280;54380;47.770;11.150;2022-12-07T08:56:44;94772.44;;;3.30;69.26
67545;BME280;54380;47.770;11.150;2022-12-07T08:59:12;94770.63;;;3.31;68.87
67545;BME280;54380;47.770;11.150;2022-12-07T09:01:40;94780.88;;;3.33;69.48
67545;BME280;54380;47.770;11.150;2022-12-07T09:04:06;94782.69;;;3.32;69.28
67545;BME280;54380;47.770;11.150;2022-12-07T09:06:33;94788.47;;;3.34;69.40
67545;BME280;54380;47.770;11.150;2022-12-07T09:09:00;94790.09;;;3.35;69.07
67545;BME280;54380;47.770;11.150;2022-12-07T09:11:29;94797.31;;;3.33;69.70
67545;BME280;54380;47.770;11.150;2022-12-07T09:13:56;94794.09;;;3.31;69.10
67545;BME280;54380;47.770;11.150;2022-12-07T09:16:22;94793.91;;;3.33;69.36
67545;BME280;54380;47.770;11.150;2022-12-07T09:18:49;94784.63;;;3.37;69.44
67545;BME280;54380;47.770;11.150;2022-12-07T09:21:16;94784.81;;;3.42;69.57
67545;BME280;54380;47.770;11.150;2022-12-07T09:23:42;94785.44;;;3.44;69.36
67545;BME280;54380;47.770;11.150;2022-12-07T09:26:09;94785.22;;;3.45;69.86
67545;BME280;54380;47.770;11.150;2022-12-07T09:28:38;94784.63;;;3.43;69.45
67545;BME280;54380;47.770;11.150;2022-12-07T09:31:05;94777.41;;;3.39;69.80
67545;BME280;54380;47.770;11.150;2022-12-07T09:33:52;94777.22;;;3.34;70.21
67545;BME280;54380;47.770;11.150;2022-12-07T09:36:19;94778.44;;;3.31;70.12
67545;BME280;54380;47.770;11.150;2022-12-07T09:38:46;94780.47;;;3.29;69.87
67545;BME280;54380;47.770;11.150;2022-12-07T09:41:12;94783.06;;;3.29;70.34
67545;BME280;54380;47.770;11.150;2022-12-07T09:43:40;94776.84;;;3.30;70.47
67545;BME280;54380;47.770;11.150;2022-12-07T09:46:08;94784.47;;;3.32;70.25
67545;BME280;54380;47.770;11.150;2022-12-07T09:48:38;94776.84;;;3.30;70.04
67545;BME280;54380;47.770;11.150;2022-12-07T09:51:10;94764.25;;;3.27;70.36
67545;BME280;54380;47.770;11.150;2022-12-07T09:53:48;94775.09;;;3.24;70.52
67545;BME280;54380;47.770;11.150;2022-12-07T09:56:15;94769.88;;;3.24;70.72
67545;BME280;54380;47.770;11.150;2022-12-07T09:58:45;94768.47;;;3.21;70.82
67545;BME280;54380;47.770;11.150;2022-12-07T10:01:13;94765.03;;;3.21;70.91
67545;BME280;54380;47.770;11.150;2022-12-07T10:03:42;94753.81;;;3.20;70.92
67545;BME280;54380;47.770;11.150;2022-12-07T10:06:12;94753.03;;;3.20;70.46
67545;BME280;54380;47.770;11.150;2022-12-07T10:08:38;94760.06;;;3.19;70.70
67545;BME280;54380;47.770;11.150;2022-12-07T10:11:07;94753.63;;;3.22;70.91
67545;BME280;54380;47.770;11.150;2022-12-07T10:13:37;94749.19;;;3.22;70.98
67545;BME280;54380;47.770;11.150;2022-12-07T10:16:06;94742.97;;;3.23;71.02
67545;BME280;54380;47.770;11.150;2022-12-07T10:18:54;94742.34;;;3.28;71.17
67545;BME280;54380;47.770;11.150;2022-12-07T10:21:21;94733.31;;;3.30;71.00
67545;BME280;54380;47.770;11.150;2022-12-07T10:24:00;94731.91;;;3.35;70.96
67545;BME280;54380;47.770;11.150;2022-12-07T10:26:29;94730.25;;;3.40;71.05
67545;BME280;54380;47.770;11.150;2022-12-07T10:28:56;94721.41;;;3.41;70.77
67545;BME280;54380;47.770;11.150;2022-12-07T10:31:26;94729.59;;;3.45;70.41
67545;BME280;54380;47.770;11.150;2022-12-07T10:33:53;94729.22;;;3.48;70.37
67545;BME280;54380;47.770;11.150;2022-12-07T10:36:21;94729.00;;;3.49;70.56
67545;BME280;54380;47.770;11.150;2022-12-07T10:38:49;94723.34;;;3.52;70.27
67545;BME280;54380;47.770;11.150;2022-12-07T10:41:16;94724.72;;;3.55;70.20
67545;BME280;54380;47.770;11.150;2022-12-07T10:43:46;94726.56;;;3.55;70.49
67545;BME280;54380;47.770;11.150;2022-12-07T10:46:34;94719.75;;;3.54;70.00
67545;BME280;54380;47.770;11.150;2022-12-07T10:49:06;94713.72;;;3.53;69.99
67545;BME280;54380;47.770;11.150;2022-12-07T10:51:40;94714.91;;;3.57;70.17
67545;BME280;54380;47.770;11.150;2022-12-07T10:54:12;94713.31;;;3.56;70.09
67545;BME280;54380;47.770;11.150;2022-12-07T10:56:48;94713.31;;;3.56;70.40
67545;BME280;54380;47.770;11.150;2022-12-07T10:59:28;94709.91;;;3.56;70.33
67545;BME280;54380;47.770;11.150;2022-12-07T11:02:00;94707.69;;;3.52;70.09
67545;BME280;54380;47.770;11.150;2022-12-07T11:04:35;94694.28;;;3.49;70.24
67545;BME280;54380;47.770;11.150;2022-12-07T11:07:06;94697.91;;;3.48;69.77
67545;BME280;54380;47.770;11.150;2022-12-07T11:09:47;94692.44;;;3.49;70.51
67545;BME280;54380;47.770;11.150;2022-12-07T11:12:43;94688.44;;;3.47;70.32
67545;BME280;54380;47.770;11.150;2022-12-07T11:15:13;94694.47;;;3.47;70.14
67545;BME280;54380;47.770;11.150;2022-12-07T11:17:47;94686.28;;;3.44;70.42
67545;BME280;54380;47.770;11.150;2022-12-07T11:20:19;94674.81;;;3.45;70.20
67545;BME280;54380;47.770;11.150;2022-12-07T11:22:51;94676.19;;;3.47;70.53
67545;BME280;54380;47.770;11.150;2022-12-07T11:25:23;94676.00;;;3.49;70.09
67545;BME280;54380;47.770;11.150;2022-12-07T11:27:59;94671.56;;;3.49;69.77
67545;BME280;54380;47.770;11.150;2022-12-07T11:30:30;94664.38;;;3.45;70.29
67545;BME280;54380;47.770;11.150;2022-12-07T11:33:04;94658.16;;;3.46;69.92
67545;BME280;54380;47.770;11.150;2022-12-07T11:35:36;94662.34;;;3.47;70.29
67545;BME280;54380;47.770;11.150;2022-12-07T11:38:07;94660.53;;;3.47;70.53
67545;BME280;54380;47.770;11.150;2022-12-07T11:40:36;94656.50;;;3.51;70.40
67545;BME280;54380;47.770;11.150;2022-12-07T11:43:05;94652.25;;;3.57;70.34
67545;BME280;54380;47.770;11.150;2022-12-07T11:45:34;94655.63;;;3.64;70.12
67545;BME280;54380;47.770;11.150;2022-12-07T11:48:03;94653.97;;;3.70;69.70
67545;BME280;54380;47.770;11.150;2022-12-07T11:50:33;94651.97;;;3.72;70.33
67545;BME280;54380;47.770;11.150;2022-12-07T11:53:03;94648.13;;;3.74;69.65
67545;BME280;54380;47.770;11.150;2022-12-07T11:55:34;94641.72;;;3.70;69.53
67545;BME280;54380;47.770;11.150;2022-12-07T11:58:09;94636.72;;;3.69;69.51
67545;BME280;54380;47.770;11.150;2022-12-07T12:00:39;94637.34;;;3.64;69.64
67545;BME280;54380;47.770;11.150;2022-12-07T12:03:10;94632.94;;;3.65;69.77
67545;BME280;54380;47.770;11.150;2022-12-07T12:05:38;94629.09;;;3.67;69.71
67545;BME280;54380;47.770;11.150;2022-12-07T12:08:10;94629.09;;;3.67;69.59
67545;BME280;54380;47.770;11.150;2022-12-07T12:11:00;94626.84;;;3.71;69.92
67545;BME280;54380;47.770;11.150;2022-12-07T12:16:44;94623.84;;;3.74;69.30
67545;BME280;54380;47.770;11.150;2022-12-07T12:19:20;94615.34;;;3.79;69.07
67545;BME280;54380;47.770;11.150;2022-12-07T12:21:49;94612.97;;;3.77;69.10
67545;BME280;54380;47.770;11.150;2022-12-07T12:24:23;94614.78;;;3.77;69.30
67545;BME280;54380;47.770;11.150;2022-12-07T12:26:52;94607.31;;;3.80;69.22
67545;BME280;54380;47.770;11.150;2022-12-07T12:29:21;94615.50;;;3.84;69.47
67545;BME280;54380;47.770;11.150;2022-12-07T12:32:04;94611.47;;;3.88;68.97
67545;BME280;54380;47.770;11.150;2022-12-07T12:34:38;94606.81;;;3.90;69.03
67545;BME280;54380;47.770;11.150;2022-12-07T12:42:43;94610.31;;;4.02;69.12
67545;BME280;54380;47.770;11.150;2022-12-07T12:45:17;94609.66;;;4.07;69.27
67545;BME280;54380;47.770;11.150;2022-12-07T12:50:34;94596.03;;;4.05;67.89
67545;BME280;54380;47.770;11.150;2022-12-07T12:56:01;94590.75;;;4.11;68.67
67545;BME280;54380;47.770;11.150;2022-12-07T12:58:36;94597.69;;;4.17;68.49
67545;BME280;54380;47.770;11.150;2022-12-07T13:03:52;94596.28;;;4.22;68.07
67545;BME280;54380;47.770;11.150;2022-12-07T13:06:31;94597.06;;;4.22;68.07
67545;BME280;54380;47.770;11.150;2022-12-07T13:08:59;94590.81;;;4.23;67.67
67545;BME280;54380;47.770;11.150;2022-12-07T13:11:29;94581.97;;;4.24;67.53
67545;BME280;54380;47.770;11.150;2022-12-07T13:16:39;94579.13;;;4.26;67.84
67545;BME280;54380;47.770;11.150;2022-12-07T13:21:53;94583.91;;;4.29;67.75
67545;BME280;54380;47.770;11.150;2022-12-07T13:24:20;94574.63;;;4.33;67.57
67545;BME280;54380;47.770;11.150;2022-12-07T13:26:46;94580.78;;;4.38;67.34
67545;BME280;54380;47.770;11.150;2022-12-07T13:29:15;94580.34;;;4.42;67.28
67545;BME280;54380;47.770;11.150;2022-12-07T13:31:42;94578.31;;;4.44;67.97
67545;BME280;54380;47.770;11.150;2022-12-07T13:34:28;94580.28;;;4.48;67.98
67545;BME280;54380;47.770;11.150;2022-12-07T13:36:59;94574.19;;;4.54;67.33